EGNJ

Humberside Airport

Grimsby, United Kingdom
METAR EGNJ 230850Z 25020KT CAVOK 12/08 Q1025
Observed Flight Rules
Oct-23 @ 08:50 UTC (49 minutes ago) Visual Flight Rules
Wind Visibility Clouds
250° at 20 knots 10,000+ meters
  • Clear skies
Temperatures Readings
Current 12°C / 54°F
Dewpoint 8°C / 46°F
Humidity 77%
Altimeter 30.27" Hg
Pressure 1025 hPa
Elevation 31
METAR EGNJ 230850Z 25020KT CAVOK 12/08 Q1025
Observed Flight Rules
Oct-23 @ 08:50 UTC
(49 minutes ago)
VFR
Wind Visibility
250° at 20 knots 10,000+ meters
Clouds
  • Clear skies
Temperature Dewpoint
12°C / 54°F 8°C / 46°F
Humidity Altimeter Pressure
77% 30.27" Hg 1025 hPa